sensor_id;sensor_type;location;lat;lon;timestamp;temperature;humidity
24518;DHT22;12678;51.336;12.406;2023-04-03T00:01:38;3.40;99.90
24518;DHT22;12678;51.336;12.406;2023-04-03T00:04:05;3.40;99.90
24518;DHT22;12678;51.336;12.406;2023-04-03T00:06:31;3.40;99.90
24518;DHT22;12678;51.336;12.406;2023-04-03T00:08:57;3.40;99.90
24518;DHT22;12678;51.336;12.406;2023-04-03T00:11:23;3.50;99.90
24518;DHT22;12678;51.336;12.406;2023-04-03T00:13:49;3.60;99.90
24518;DHT22;12678;51.336;12.406;2023-04-03T00:16:15;3.60;99.90
24518;DHT22;12678;51.336;12.406;2023-04-03T00:18:41;3.60;99.90
24518;DHT22;12678;51.336;12.406;2023-04-03T00:21:09;3.60;99.90
24518;DHT22;12678;51.336;12.406;2023-04-03T00:23:35;3.50;99.90
24518;DHT22;12678;51.336;12.406;2023-04-03T00:26:01;3.50;99.90
24518;DHT22;12678;51.336;12.406;2023-04-03T00:28:27;3.50;99.90
24518;DHT22;12678;51.336;12.406;2023-04-03T00:30:54;3.50;99.90
24518;DHT22;12678;51.336;12.406;2023-04-03T00:33:20;3.30;99.90
24518;DHT22;12678;51.336;12.406;2023-04-03T00:35:50;3.40;99.90
24518;DHT22;12678;51.336;12.406;2023-04-03T00:38:16;3.40;99.90
24518;DHT22;12678;51.336;12.406;2023-04-03T00:40:44;3.40;99.90
24518;DHT22;12678;51.336;12.406;2023-04-03T00:43:22;3.30;99.90
24518;DHT22;12678;51.336;12.406;2023-04-03T00:45:51;3.30;99.90
24518;DHT22;12678;51.336;12.406;2023-04-03T00:48:20;3.20;99.90
24518;DHT22;12678;51.336;12.406;2023-04-03T00:50:47;3.30;99.90
24518;DHT22;12678;51.336;12.406;2023-04-03T00:53:18;3.20;99.90
24518;DHT22;12678;51.336;12.406;2023-04-03T00:55:46;3.20;99.90
24518;DHT22;12678;51.336;12.406;2023-04-03T00:58:13;3.00;99.90
24518;DHT22;12678;51.336;12.406;2023-04-03T01:00:42;2.90;99.90
24518;DHT22;12678;51.336;12.406;2023-04-03T01:03:09;3.00;99.90
24518;DHT22;12678;51.336;12.406;2023-04-03T01:05:35;3.00;99.90
24518;DHT22;12678;51.336;12.406;2023-04-03T01:08:01;3.00;99.90
24518;DHT22;12678;51.336;12.406;2023-04-03T01:10:27;3.00;99.90
24518;DHT22;12678;51.336;12.406;2023-04-03T01:12:53;2.80;99.90
24518;DHT22;12678;51.336;12.406;2023-04-03T01:15:24;2.90;99.90
24518;DHT22;12678;51.336;12.406;2023-04-03T01:17:57;2.90;99.90
24518;DHT22;12678;51.336;12.406;2023-04-03T01:23:10;2.70;99.90
24518;DHT22;12678;51.336;12.406;2023-04-03T01:25:42;2.60;99.90
24518;DHT22;12678;51.336;12.406;2023-04-03T01:28:12;2.60;99.90
24518;DHT22;12678;51.336;12.406;2023-04-03T01:31:01;2.50;99.90
24518;DHT22;12678;51.336;12.406;2023-04-03T01:33:29;2.50;99.90
24518;DHT22;12678;51.336;12.406;2023-04-03T01:35:56;2.50;99.90
24518;DHT22;12678;51.336;12.406;2023-04-03T01:38:22;2.50;99.90
24518;DHT22;12678;51.336;12.406;2023-04-03T01:40:47;2.50;99.90
24518;DHT22;12678;51.336;12.406;2023-04-03T01:43:13;2.50;99.90
24518;DHT22;12678;51.336;12.406;2023-04-03T01:45:39;2.40;99.90
24518;DHT22;12678;51.336;12.406;2023-04-03T01:48:05;2.40;99.90
24518;DHT22;12678;51.336;12.406;2023-04-03T01:50:30;2.20;99.90
24518;DHT22;12678;51.336;12.406;2023-04-03T01:52:56;2.20;99.90
24518;DHT22;12678;51.336;12.406;2023-04-03T01:55:22;2.30;99.90
24518;DHT22;12678;51.336;12.406;2023-04-03T01:57:48;2.10;99.90
24518;DHT22;12678;51.336;12.406;2023-04-03T02:00:14;2.10;99.90
24518;DHT22;12678;51.336;12.406;2023-04-03T02:02:41;2.10;99.90
24518;DHT22;12678;51.336;12.406;2023-04-03T02:05:07;2.00;99.90
24518;DHT22;12678;51.336;12.406;2023-04-03T02:07:32;2.10;99.90
24518;DHT22;12678;51.336;12.406;2023-04-03T02:09:58;2.10;99.90
24518;DHT22;12678;51.336;12.406;2023-04-03T02:12:24;2.20;99.90
24518;DHT22;12678;51.336;12.406;2023-04-03T02:14:49;2.20;99.90
24518;DHT22;12678;51.336;12.406;2023-04-03T02:20:38;2.20;99.90
24518;DHT22;12678;51.336;12.406;2023-04-03T02:23:04;2.20;99.90
24518;DHT22;12678;51.336;12.406;2023-04-03T02:25:32;2.30;99.90
24518;DHT22;12678;51.336;12.406;2023-04-03T02:27:58;2.20;99.90
24518;DHT22;12678;51.336;12.406;2023-04-03T02:30:24;2.20;99.90
24518;DHT22;12678;51.336;12.406;2023-04-03T02:32:49;1.90;99.90
24518;DHT22;12678;51.336;12.406;2023-04-03T02:35:15;1.90;99.90
24518;DHT22;12678;51.336;12.406;2023-04-03T02:37:41;1.90;99.90
24518;DHT22;12678;51.336;12.406;2023-04-03T02:40:08;2.00;99.90
24518;DHT22;12678;51.336;12.406;2023-04-03T02:42:34;2.00;99.90
24518;DHT22;12678;51.336;12.406;2023-04-03T02:44:59;1.90;99.90
24518;DHT22;12678;51.336;12.406;2023-04-03T02:47:28;1.90;99.90
24518;DHT22;12678;51.336;12.406;2023-04-03T02:49:53;1.90;99.90
24518;DHT22;12678;51.336;12.406;2023-04-03T02:52:20;1.80;99.90
24518;DHT22;12678;51.336;12.406;2023-04-03T02:54:46;1.80;99.90
24518;DHT22;12678;51.336;12.406;2023-04-03T02:57:12;1.70;99.90
24518;DHT22;12678;51.336;12.406;2023-04-03T02:59:39;1.70;99.90
24518;DHT22;12678;51.336;12.406;2023-04-03T03:02:08;1.70;99.90
24518;DHT22;12678;51.336;12.406;2023-04-03T03:04:34;1.80;99.90
24518;DHT22;12678;51.336;12.406;2023-04-03T03:07:00;1.60;99.90
24518;DHT22;12678;51.336;12.406;2023-04-03T03:09:25;1.50;99.90
24518;DHT22;12678;51.336;12.406;2023-04-03T03:11:51;1.50;99.90
24518;DHT22;12678;51.336;12.406;2023-04-03T03:14:18;1.50;99.90
24518;DHT22;12678;51.336;12.406;2023-04-03T03:16:45;1.40;99.90
24518;DHT22;12678;51.336;12.406;2023-04-03T03:19:11;1.40;99.90
24518;DHT22;12678;51.336;12.406;2023-04-03T03:21:36;1.40;99.90
24518;DHT22;12678;51.336;12.406;2023-04-03T03:24:02;1.40;99.90
24518;DHT22;12678;51.336;12.406;2023-04-03T03:26:28;1.30;99.90
24518;DHT22;12678;51.336;12.406;2023-04-03T03:28:54;1.30;99.90
24518;DHT22;12678;51.336;12.406;2023-04-03T03:31:19;1.20;99.90
24518;DHT22;12678;51.336;12.406;2023-04-03T03:33:46;1.20;99.90
24518;DHT22;12678;51.336;12.406;2023-04-03T03:36:12;1.20;99.90
24518;DHT22;12678;51.336;12.406;2023-04-03T03:38:38;1.20;99.90
24518;DHT22;12678;51.336;12.406;2023-04-03T03:41:04;1.30;99.90
24518;DHT22;12678;51.336;12.406;2023-04-03T03:43:31;1.20;99.90
24518;DHT22;12678;51.336;12.406;2023-04-03T03:45:56;1.20;99.90
24518;DHT22;12678;51.336;12.406;2023-04-03T03:48:23;1.20;99.90
24518;DHT22;12678;51.336;12.406;2023-04-03T03:50:50;1.30;99.90
24518;DHT22;12678;51.336;12.406;2023-04-03T03:53:16;1.20;99.90
24518;DHT22;12678;51.336;12.406;2023-04-03T03:55:42;1.20;99.90
24518;DHT22;12678;51.336;12.406;2023-04-03T03:58:08;1.20;99.90
24518;DHT22;12678;51.336;12.406;2023-04-03T04:00:34;1.20;99.90
24518;DHT22;12678;51.336;12.406;2023-04-03T04:03:00;1.10;99.90
24518;DHT22;12678;51.336;12.406;2023-04-03T04:05:26;1.10;99.90
24518;DHT22;12678;51.336;12.406;2023-04-03T04:07:53;1.10;99.90
24518;DHT22;12678;51.336;12.406;2023-04-03T04:10:19;1.00;99.90
24518;DHT22;12678;51.336;12.406;2023-04-03T04:12:44;1.00;99.90
24518;DHT22;12678;51.336;12.406;2023-04-03T04:15:10;0.90;99.90
24518;DHT22;12678;51.336;12.406;2023-04-03T04:17:36;1.00;99.90
24518;DHT22;12678;51.336;12.406;2023-04-03T04:20:03;0.90;99.90
24518;DHT22;12678;51.336;12.406;2023-04-03T04:22:32;0.80;99.90
24518;DHT22;12678;51.336;12.406;2023-04-03T04:24:58;0.90;99.90
24518;DHT22;12678;51.336;12.406;2023-04-03T04:27:24;0.90;99.90
24518;DHT22;12678;51.336;12.406;2023-04-03T04:29:49;0.90;99.90
24518;DHT22;12678;51.336;12.406;2023-04-03T04:32:16;0.90;99.90
24518;DHT22;12678;51.336;12.406;2023-04-03T04:34:42;0.80;99.90
24518;DHT22;12678;51.336;12.406;2023-04-03T04:37:07;0.80;99.90
24518;DHT22;12678;51.336;12.406;2023-04-03T04:39:33;0.70;99.90
24518;DHT22;12678;51.336;12.406;2023-04-03T04:42:00;0.70;99.90
24518;DHT22;12678;51.336;12.406;2023-04-03T04:44:26;0.70;99.90
24518;DHT22;12678;51.336;12.406;2023-04-03T04:46:52;0.80;99.90
24518;DHT22;12678;51.336;12.406;2023-04-03T04:49:18;0.80;99.90
24518;DHT22;12678;51.336;12.406;2023-04-03T04:51:44;0.80;99.90
24518;DHT22;12678;51.336;12.406;2023-04-03T04:54:10;0.80;99.90
24518;DHT22;12678;51.336;12.406;2023-04-03T04:56:35;0.80;99.90
24518;DHT22;12678;51.336;12.406;2023-04-03T04:59:01;0.80;99.90
24518;DHT22;12678;51.336;12.406;2023-04-03T05:01:27;0.90;99.90
24518;DHT22;12678;51.336;12.406;2023-04-03T05:03:52;0.90;99.90
24518;DHT22;12678;51.336;12.406;2023-04-03T05:06:18;0.80;99.90
24518;DHT22;12678;51.336;12.406;2023-04-03T05:08:44;0.70;99.90
24518;DHT22;12678;51.336;12.406;2023-04-03T05:11:10;0.70;99.90
24518;DHT22;12678;51.336;12.406;2023-04-03T05:13:38;0.80;99.90
24518;DHT22;12678;51.336;12.406;2023-04-03T05:16:04;0.80;99.90
24518;DHT22;12678;51.336;12.406;2023-04-03T05:18:30;0.90;99.90
24518;DHT22;12678;51.336;12.406;2023-04-03T05:20:55;0.90;99.90
24518;DHT22;12678;51.336;12.406;2023-04-03T05:23:21;0.90;99.90
24518;DHT22;12678;51.336;12.406;2023-04-03T05:25:47;1.00;99.90
24518;DHT22;12678;51.336;12.406;2023-04-03T05:28:14;1.10;99.90
24518;DHT22;12678;51.336;12.406;2023-04-03T05:30:40;0.90;99.90
24518;DHT22;12678;51.336;12.406;2023-04-03T05:33:06;1.10;99.90
24518;DHT22;12678;51.336;12.406;2023-04-03T05:35:32;1.10;99.90
24518;DHT22;12678;51.336;12.406;2023-04-03T05:37:57;1.10;99.90
24518;DHT22;12678;51.336;12.406;2023-04-03T05:40:23;1.10;99.90
24518;DHT22;12678;51.336;12.406;2023-04-03T05:42:48;1.20;99.90
24518;DHT22;12678;51.336;12.406;2023-04-03T05:45:14;1.10;99.90
24518;DHT22;12678;51.336;12.406;2023-04-03T05:47:40;1.20;99.90
24518;DHT22;12678;51.336;12.406;2023-04-03T05:50:06;1.20;99.90
24518;DHT22;12678;51.336;12.406;2023-04-03T05:52:37;1.40;99.90
24518;DHT22;12678;51.336;12.406;2023-04-03T05:55:03;1.50;99.90
24518;DHT22;12678;51.336;12.406;2023-04-03T05:57:29;1.50;99.90
24518;DHT22;12678;51.336;12.406;2023-04-03T05:59:55;1.60;99.90
24518;DHT22;12678;51.336;12.406;2023-04-03T06:02:22;1.70;99.90
24518;DHT22;12678;51.336;12.406;2023-04-03T06:04:49;1.60;99.90
24518;DHT22;12678;51.336;12.406;2023-04-03T06:07:21;1.80;99.90
24518;DHT22;12678;51.336;12.406;2023-04-03T06:09:48;1.90;99.90
24518;DHT22;12678;51.336;12.406;2023-04-03T06:12:15;2.00;99.90
24518;DHT22;12678;51.336;12.406;2023-04-03T06:14:41;1.90;99.90
24518;DHT22;12678;51.336;12.406;2023-04-03T06:17:07;2.00;99.90
24518;DHT22;12678;51.336;12.406;2023-04-03T06:19:34;2.00;99.90
24518;DHT22;12678;51.336;12.406;2023-04-03T06:22:00;2.10;99.90
24518;DHT22;12678;51.336;12.406;2023-04-03T06:24:26;2.10;99.90
24518;DHT22;12678;51.336;12.406;2023-04-03T06:26:53;2.20;99.90
24518;DHT22;12678;51.336;12.406;2023-04-03T06:29:20;2.30;99.90
24518;DHT22;12678;51.336;12.406;2023-04-03T06:31:46;2.50;99.90
24518;DHT22;12678;51.336;12.406;2023-04-03T06:34:13;2.60;99.90
24518;DHT22;12678;51.336;12.406;2023-04-03T06:36:39;2.50;99.90
24518;DHT22;12678;51.336;12.406;2023-04-03T06:39:06;2.50;99.90
24518;DHT22;12678;51.336;12.406;2023-04-03T06:41:33;2.50;99.90
24518;DHT22;12678;51.336;12.406;2023-04-03T06:43:58;2.40;99.90
24518;DHT22;12678;51.336;12.406;2023-04-03T06:46:26;2.20;99.90
24518;DHT22;12678;51.336;12.406;2023-04-03T06:48:52;2.30;99.90
24518;DHT22;12678;51.336;12.406;2023-04-03T06:51:24;2.10;99.90
24518;DHT22;12678;51.336;12.406;2023-04-03T06:53:52;2.20;99.90
24518;DHT22;12678;51.336;12.406;2023-04-03T06:56:18;2.40;99.90
24518;DHT22;12678;51.336;12.406;2023-04-03T06:58:45;2.30;99.90
24518;DHT22;12678;51.336;12.406;2023-04-03T07:01:12;2.40;99.90
24518;DHT22;12678;51.336;12.406;2023-04-03T07:03:39;2.20;99.90
24518;DHT22;12678;51.336;12.406;2023-04-03T07:06:06;2.20;99.90
24518;DHT22;12678;51.336;12.406;2023-04-03T07:08:34;2.40;99.90
24518;DHT22;12678;51.336;12.406;2023-04-03T07:11:00;2.50;99.90
24518;DHT22;12678;51.336;12.406;2023-04-03T07:13:26;2.70;99.90
24518;DHT22;12678;51.336;12.406;2023-04-03T07:15:52;3.00;99.90
24518;DHT22;12678;51.336;12.406;2023-04-03T07:18:18;3.20;99.90
24518;DHT22;12678;51.336;12.406;2023-04-03T07:20:45;3.10;99.90
24518;DHT22;12678;51.336;12.406;2023-04-03T07:23:11;3.20;99.90
24518;DHT22;12678;51.336;12.406;2023-04-03T07:25:37;3.20;99.90
24518;DHT22;12678;51.336;12.406;2023-04-03T07:28:07;3.30;99.90
24518;DHT22;12678;51.336;12.406;2023-04-03T07:30:33;3.30;99.90
24518;DHT22;12678;51.336;12.406;2023-04-03T07:32:59;3.20;99.90
24518;DHT22;12678;51.336;12.406;2023-04-03T07:35:24;3.20;99.90
24518;DHT22;12678;51.336;12.406;2023-04-03T07:37:50;3.30;99.90
24518;DHT22;12678;51.336;12.406;2023-04-03T07:40:16;3.50;99.90
24518;DHT22;12678;51.336;12.406;2023-04-03T07:42:41;3.50;99.90
24518;DHT22;12678;51.336;12.406;2023-04-03T07:45:07;3.80;99.90
24518;DHT22;12678;51.336;12.406;2023-04-03T07:47:33;4.20;99.90
24518;DHT22;12678;51.336;12.406;2023-04-03T07:49:59;4.50;99.90
24518;DHT22;12678;51.336;12.406;2023-04-03T07:52:25;5.10;99.90
24518;DHT22;12678;51.336;12.406;2023-04-03T07:54:51;5.40;99.90
24518;DHT22;12678;51.336;12.406;2023-04-03T07:57:18;6.00;99.90
24518;DHT22;12678;51.336;12.406;2023-04-03T07:59:43;6.20;99.90
24518;DHT22;12678;51.336;12.406;2023-04-03T08:02:09;6.70;99.90
24518;DHT22;12678;51.336;12.406;2023-04-03T08:04:35;6.80;99.90
24518;DHT22;12678;51.336;12.406;2023-04-03T08:07:01;6.30;99.90
24518;DHT22;12678;51.336;12.406;2023-04-03T08:09:27;6.30;99.90
24518;DHT22;12678;51.336;12.406;2023-04-03T08:11:52;6.00;99.90
24518;DHT22;12678;51.336;12.406;2023-04-03T08:14:19;5.40;99.90
24518;DHT22;12678;51.336;12.406;2023-04-03T08:16:46;5.40;99.90
24518;DHT22;12678;51.336;12.406;2023-04-03T08:19:12;5.40;99.90
24518;DHT22;12678;51.336;12.406;2023-04-03T08:21:40;5.80;99.90
24518;DHT22;12678;51.336;12.406;2023-04-03T08:24:07;6.60;99.90
24518;DHT22;12678;51.336;12.406;2023-04-03T08:26:34;7.20;99.90
24518;DHT22;12678;51.336;12.406;2023-04-03T08:28:59;7.50;98.50
24518;DHT22;12678;51.336;12.406;2023-04-03T08:31:25;6.90;97.90
24518;DHT22;12678;51.336;12.406;2023-04-03T08:33:50;6.70;98.10
24518;DHT22;12678;51.336;12.406;2023-04-03T08:36:25;6.60;98.40
24518;DHT22;12678;51.336;12.406;2023-04-03T08:38:52;6.30;98.90
24518;DHT22;12678;51.336;12.406;2023-04-03T08:41:27;5.90;98.00
24518;DHT22;12678;51.336;12.406;2023-04-03T08:49:39;5.60;98.70
24518;DHT22;12678;51.336;12.406;2023-04-03T08:52:11;5.40;98.00
24518;DHT22;12678;51.336;12.406;2023-04-03T08:54:49;6.00;96.80
24518;DHT22;12678;51.336;12.406;2023-04-03T08:57:18;6.20;95.90
24518;DHT22;12678;51.336;12.406;2023-04-03T08:59:45;6.70;95.70
24518;DHT22;12678;51.336;12.406;2023-04-03T09:02:25;6.60;94.20
24518;DHT22;12678;51.336;12.406;2023-04-03T09:04:53;6.30;94.50
24518;DHT22;12678;51.336;12.406;2023-04-03T09:07:30;6.40;94.70
24518;DHT22;12678;51.336;12.406;2023-04-03T09:10:00;6.90;93.20
24518;DHT22;12678;51.336;12.406;2023-04-03T09:12:43;6.60;93.80
24518;DHT22;12678;51.336;12.406;2023-04-03T09:15:26;6.60;94.20
24518;DHT22;12678;51.336;12.406;2023-04-03T09:21:15;6.20;95.70
24518;DHT22;12678;51.336;12.406;2023-04-03T09:23:55;6.50;94.60
24518;DHT22;12678;51.336;12.406;2023-04-03T09:26:30;6.00;95.40
24518;DHT22;12678;51.336;12.406;2023-04-03T09:29:00;6.20;94.50
24518;DHT22;12678;51.336;12.406;2023-04-03T09:31:38;6.20;94.30
24518;DHT22;12678;51.336;12.406;2023-04-03T09:36:50;5.90;95.70
24518;DHT22;12678;51.336;12.406;2023-04-03T09:39:21;5.80;96.10
24518;DHT22;12678;51.336;12.406;2023-04-03T09:42:24;6.00;96.30
24518;DHT22;12678;51.336;12.406;2023-04-03T09:44:59;6.00;96.40
24518;DHT22;12678;51.336;12.406;2023-04-03T09:47:34;6.20;94.40
24518;DHT22;12678;51.336;12.406;2023-04-03T09:50:20;6.20;93.10
24518;DHT22;12678;51.336;12.406;2023-04-03T09:52:49;6.20;93.70
24518;DHT22;12678;51.336;12.406;2023-04-03T09:57:45;6.20;91.80
24518;DHT22;12678;51.336;12.406;2023-04-03T10:00:23;6.50;92.30
24518;DHT22;12678;51.336;12.406;2023-04-03T10:02:53;6.70;92.80
24518;DHT22;12678;51.336;12.406;2023-04-03T10:05:37;6.70;94.00
24518;DHT22;12678;51.336;12.406;2023-04-03T10:08:30;7.30;93.20
24518;DHT22;12678;51.336;12.406;2023-04-03T10:11:17;7.30;92.00
24518;DHT22;12678;51.336;12.406;2023-04-03T10:13:55;7.10;91.80
24518;DHT22;12678;51.336;12.406;2023-04-03T10:16:41;7.10;91.80
24518;DHT22;12678;51.336;12.406;2023-04-03T10:19:33;7.10;90.80
24518;DHT22;12678;51.336;12.406;2023-04-03T10:22:15;7.10;91.20
24518;DHT22;12678;51.336;12.406;2023-04-03T10:25:01;7.40;91.30
24518;DHT22;12678;51.336;12.406;2023-04-03T10:27:48;7.30;91.10
24518;DHT22;12678;51.336;12.406;2023-04-03T10:30:19;7.20;91.60
24518;DHT22;12678;51.336;12.406;2023-04-03T10:33:05;7.10;91.30
24518;DHT22;12678;51.336;12.406;2023-04-03T10:46:27;6.70;90.60
24518;DHT22;12678;51.336;12.406;2023-04-03T10:57:41;6.60;91.50
24518;DHT22;12678;51.336;12.406;2023-04-03T11:00:22;6.10;91.60
24518;DHT22;12678;51.336;12.406;2023-04-03T11:02:58;5.90;92.80
24518;DHT22;12678;51.336;12.406;2023-04-03T11:05:45;5.80;92.90
24518;DHT22;12678;51.336;12.406;2023-04-03T11:10:52;6.20;91.70
24518;DHT22;12678;51.336;12.406;2023-04-03T11:13:38;6.30;91.30
24518;DHT22;12678;51.336;12.406;2023-04-03T11:16:07;6.50;90.70
24518;DHT22;12678;51.336;12.406;2023-04-03T11:18:47;6.80;89.50
24518;DHT22;12678;51.336;12.406;2023-04-03T11:21:56;6.80;90.10
24518;DHT22;12678;51.336;12.406;2023-04-03T11:24:25;7.00;89.80
24518;DHT22;12678;51.336;12.406;2023-04-03T11:26:53;7.10;89.10
24518;DHT22;12678;51.336;12.406;2023-04-03T11:29:27;7.20;89.10
24518;DHT22;12678;51.336;12.406;2023-04-03T11:34:50;6.90;89.30
24518;DHT22;12678;51.336;12.406;2023-04-03T11:37:31;6.80;89.70
24518;DHT22;12678;51.336;12.406;2023-04-03T11:42:40;7.40;88.50
24518;DHT22;12678;51.336;12.406;2023-04-03T11:45:29;7.50;85.40
24518;DHT22;12678;51.336;12.406;2023-04-03T11:50:45;7.00;87.30
24518;DHT22;12678;51.336;12.406;2023-04-03T12:00:53;6.90;88.70
24518;DHT22;12678;51.336;12.406;2023-04-03T12:18:57;6.60;86.90
24518;DHT22;12678;51.336;12.406;2023-04-03T12:37:24;6.40;88.20
24518;DHT22;12678;51.336;12.406;2023-04-03T12:40:30;6.40;86.70
24518;DHT22;12678;51.336;12.406;2023-04-03T12:48:14;6.40;86.70
24518;DHT22;12678;51.336;12.406;2023-04-03T12:50:45;6.50;89.40
24518;DHT22;12678;51.336;12.406;2023-04-03T12:53:21;6.70;90.30
24518;DHT22;12678;51.336;12.406;2023-04-03T12:55:55;6.60;90.30
24518;DHT22;12678;51.336;12.406;2023-04-03T12:58:24;6.70;90.30
24518;DHT22;12678;51.336;12.406;2023-04-03T13:01:08;6.60;90.00
24518;DHT22;12678;51.336;12.406;2023-04-03T13:03:37;6.70;89.10
24518;DHT22;12678;51.336;12.406;2023-04-03T13:06:05;6.80;87.50
24518;DHT22;12678;51.336;12.406;2023-04-03T13:08:31;6.70;87.00
24518;DHT22;12678;51.336;12.406;2023-04-03T13:11:09;6.80;88.20
24518;DHT22;12678;51.336;12.406;2023-04-03T13:13:36;6.90;87.50
24518;DHT22;12678;51.336;12.406;2023-04-03T13:16:10;6.90;88.20
24518;DHT22;12678;51.336;12.406;2023-04-03T13:18:39;7.10;88.40
24518;DHT22;12678;51.336;12.406;2023-04-03T13:21:10;7.20;87.10
24518;DHT22;12678;51.336;12.406;2023-04-03T13:23:38;7.10;86.30
24518;DHT22;12678;51.336;12.406;2023-04-03T13:26:06;7.00;87.30
24518;DHT22;12678;51.336;12.406;2023-04-03T13:28:34;6.90;87.30
24518;DHT22;12678;51.336;12.406;2023-04-03T13:31:05;6.80;87.30
24518;DHT22;12678;51.336;12.406;2023-04-03T13:33:34;6.80;87.50
24518;DHT22;12678;51.336;12.406;2023-04-03T13:36:04;6.70;86.10
24518;DHT22;12678;51.336;12.406;2023-04-03T13:38:32;6.60;86.70
24518;DHT22;12678;51.336;12.406;2023-04-03T13:41:03;6.60;86.80
24518;DHT22;12678;51.336;12.406;2023-04-03T13:43:33;6.70;86.30
24518;DHT22;12678;51.336;12.406;2023-04-03T13:48:43;6.70;86.20
24518;DHT22;12678;51.336;12.406;2023-04-03T13:54:15;6.50;86.50
24518;DHT22;12678;51.336;12.406;2023-04-03T13:56:34;6.40;88.10
24518;DHT22;12678;51.336;12.406;2023-04-03T14:01:50;6.40;86.10
24518;DHT22;12678;51.336;12.406;2023-04-03T14:04:23;6.40;86.40
24518;DHT22;12678;51.336;12.406;2023-04-03T14:06:49;6.30;86.90
24518;DHT22;12678;51.336;12.406;2023-04-03T14:09:17;6.30;88.50
24518;DHT22;12678;51.336;12.406;2023-04-03T14:11:44;6.30;90.10
24518;DHT22;12678;51.336;12.406;2023-04-03T14:14:21;6.30;90.10
24518;DHT22;12678;51.336;12.406;2023-04-03T14:16:51;6.40;90.40
24518;DHT22;12678;51.336;12.406;2023-04-03T14:19:25;6.50;90.30
24518;DHT22;12678;51.336;12.406;2023-04-03T14:21:54;6.40;89.90
24518;DHT22;12678;51.336;12.406;2023-04-03T14:24:20;6.20;89.60
24518;DHT22;12678;51.336;12.406;2023-04-03T14:26:47;6.30;90.20
24518;DHT22;12678;51.336;12.406;2023-04-03T14:29:14;6.30;89.80
24518;DHT22;12678;51.336;12.406;2023-04-03T14:31:41;6.30;90.10
24518;DHT22;12678;51.336;12.406;2023-04-03T14:34:10;6.20;90.20
24518;DHT22;12678;51.336;12.406;2023-04-03T14:36:35;6.20;90.20
24518;DHT22;12678;51.336;12.406;2023-04-03T14:39:04;6.10;89.70
24518;DHT22;12678;51.336;12.406;2023-04-03T14:41:30;6.20;90.70
24518;DHT22;12678;51.336;12.406;2023-04-03T14:43:56;6.30;90.40
24518;DHT22;12678;51.336;12.406;2023-04-03T14:46:27;6.20;89.60
24518;DHT22;12678;51.336;12.406;2023-04-03T14:48:54;6.10;89.20
24518;DHT22;12678;51.336;12.406;2023-04-03T14:51:19;6.00;89.30
24518;DHT22;12678;51.336;12.406;2023-04-03T14:53:45;5.90;89.10
24518;DHT22;12678;51.336;12.406;2023-04-03T14:56:18;5.90;90.00
24518;DHT22;12678;51.336;12.406;2023-04-03T14:58:44;5.90;89.60
24518;DHT22;12678;51.336;12.406;2023-04-03T15:01:11;5.80;90.00
24518;DHT22;12678;51.336;12.406;2023-04-03T15:03:37;5.70;89.10
24518;DHT22;12678;51.336;12.406;2023-04-03T15:06:03;5.70;89.20
24518;DHT22;12678;51.336;12.406;2023-04-03T15:08:29;5.70;90.10
24518;DHT22;12678;51.336;12.406;2023-04-03T15:10:55;5.60;89.50
24518;DHT22;12678;51.336;12.406;2023-04-03T15:13:22;5.50;89.50
24518;DHT22;12678;51.336;12.406;2023-04-03T15:15:49;5.50;89.50
24518;DHT22;12678;51.336;12.406;2023-04-03T15:18:24;5.60;89.50
24518;DHT22;12678;51.336;12.406;2023-04-03T15:20:52;5.60;88.20
24518;DHT22;12678;51.336;12.406;2023-04-03T15:23:18;5.50;87.30
24518;DHT22;12678;51.336;12.406;2023-04-03T15:25:48;5.60;86.70
24518;DHT22;12678;51.336;12.406;2023-04-03T15:28:31;5.60;87.20
24518;DHT22;12678;51.336;12.406;2023-04-03T15:30:58;5.50;87.20
24518;DHT22;12678;51.336;12.406;2023-04-03T15:33:24;5.60;86.80
24518;DHT22;12678;51.336;12.406;2023-04-03T15:35:50;5.40;88.10
24518;DHT22;12678;51.336;12.406;2023-04-03T15:38:16;5.40;88.50
24518;DHT22;12678;51.336;12.406;2023-04-03T15:40:42;5.40;87.80
24518;DHT22;12678;51.336;12.406;2023-04-03T15:43:09;5.30;88.30
24518;DHT22;12678;51.336;12.406;2023-04-03T15:45:36;5.30;89.00
24518;DHT22;12678;51.336;12.406;2023-04-03T15:48:04;5.20;89.30
24518;DHT22;12678;51.336;12.406;2023-04-03T15:50:31;5.20;89.60
24518;DHT22;12678;51.336;12.406;2023-04-03T15:52:57;5.10;90.10
24518;DHT22;12678;51.336;12.406;2023-04-03T15:55:28;5.00;90.60
24518;DHT22;12678;51.336;12.406;2023-04-03T15:57:54;5.20;90.60
24518;DHT22;12678;51.336;12.406;2023-04-03T16:00:21;5.20;90.80
24518;DHT22;12678;51.336;12.406;2023-04-03T16:02:49;5.30;90.80
24518;DHT22;12678;51.336;12.406;2023-04-03T16:05:17;5.30;89.90
24518;DHT22;12678;51.336;12.406;2023-04-03T16:07:44;5.40;90.20
24518;DHT22;12678;51.336;12.406;2023-04-03T16:10:11;5.40;90.00
24518;DHT22;12678;51.336;12.406;2023-04-03T16:12:37;5.30;89.10
24518;DHT22;12678;51.336;12.406;2023-04-03T16:15:03;5.20;89.30
24518;DHT22;12678;51.336;12.406;2023-04-03T16:17:29;5.20;90.10
24518;DHT22;12678;51.336;12.406;2023-04-03T16:19:56;5.20;90.30
24518;DHT22;12678;51.336;12.406;2023-04-03T16:22:23;5.30;90.20
24518;DHT22;12678;51.336;12.406;2023-04-03T16:24:50;5.30;90.30
24518;DHT22;12678;51.336;12.406;2023-04-03T16:27:16;5.20;90.60
24518;DHT22;12678;51.336;12.406;2023-04-03T16:29:41;5.10;90.70
24518;DHT22;12678;51.336;12.406;2023-04-03T16:32:07;5.00;91.30
24518;DHT22;12678;51.336;12.406;2023-04-03T16:34:33;5.00;91.70
24518;DHT22;12678;51.336;12.406;2023-04-03T16:37:00;5.10;92.00
24518;DHT22;12678;51.336;12.406;2023-04-03T16:39:26;5.10;91.80
24518;DHT22;12678;51.336;12.406;2023-04-03T16:41:52;5.20;91.60
24518;DHT22;12678;51.336;12.406;2023-04-03T16:44:17;5.10;91.90
24518;DHT22;12678;51.336;12.406;2023-04-03T16:46:44;5.00;91.70
24518;DHT22;12678;51.336;12.406;2023-04-03T16:49:09;4.90;92.30
24518;DHT22;12678;51.336;12.406;2023-04-03T16:51:35;4.90;91.90
24518;DHT22;12678;51.336;12.406;2023-04-03T16:54:01;4.90;91.80
24518;DHT22;12678;51.336;12.406;2023-04-03T16:56:26;4.90;92.30
24518;DHT22;12678;51.336;12.406;2023-04-03T16:58:53;5.00;93.00
24518;DHT22;12678;51.336;12.406;2023-04-03T17:01:20;5.00;92.40
24518;DHT22;12678;51.336;12.406;2023-04-03T17:03:46;5.00;92.70
24518;DHT22;12678;51.336;12.406;2023-04-03T17:06:15;5.10;92.60
24518;DHT22;12678;51.336;12.406;2023-04-03T17:08:46;5.20;92.90
24518;DHT22;12678;51.336;12.406;2023-04-03T17:11:12;5.20;92.50
24518;DHT22;12678;51.336;12.406;2023-04-03T17:13:38;5.00;92.60
24518;DHT22;12678;51.336;12.406;2023-04-03T17:16:06;4.90;93.20
24518;DHT22;12678;51.336;12.406;2023-04-03T17:18:33;4.90;93.10
24518;DHT22;12678;51.336;12.406;2023-04-03T17:21:00;4.90;93.40
24518;DHT22;12678;51.336;12.406;2023-04-03T17:23:27;4.90;94.00